메인 페이지
METAR-TAF:

METAR-TAF

공항 :

호세 마르티 국제공항

아바나, 쿠바

위도: 22-59N, 경도: 082-24W, 고도: 59m

현재 날씨관측

예보는 18분 전, 05:55시(UTC)에 발표되었습니다.
북동2kt
온도 24°C
습도 100%
기압 1019 hPa
시정: 8000m
고도 4000ft 상공 구름 조금

METAR: MUHA 170555Z 05002KT 8000 FEW040 24/24 Q1019

시각: 02:13 (06:13 UTC)

예보

예보는 1 시간 13분 전, 05:00시(UTC)에 발표되었습니다.
예보 대상 시간: 17일 06시부터 18일 06시까지 (UTC)
여러 방향의 바람 3kt
시정: 9000m
고도 3000ft 상공 구름 조금
전환 중
17일 14시부터 17일 16시까지 (UTC)
10kt
일시적
17일 20시부터 17일 24시까지 (UTC)
여러 방향의 바람 10kt
시정: 5000m
고도 2000ft 상공 구름 조금, 적란운.
고도 2500ft 상공 구름 많음
소나기

TAF: MUHA 170500Z 1706/1806 VRB03KT 9000 FEW030 BECMG 1714/1716 09010KT TEMPO 1720/1724 VRB10KT 5000 SHRA FEW020CB BKN025

4,000개 이상의 공항 관측 자료 및 예보 (METAR 및 TAF 보고).

지도상에서 검색 가능한 기상관측소가 노란 점과 빨간 점으로 표시되어 있습니다.

기상관측소 명을 보려면 표시 위로 마우스를 이동하세요.

날씨 관측과 예보를 보려면 클릭하세요.

지도 변경 : 확대하려면 엑스 표시가 있는 녹색 버튼, 축소하려면 빼기 표시가 있는 녹색 버튼, 다음 페이지의 지도를 보려면 녹색 화살표를 클릭하세요.


METAR-TAF: